This is the latest recevied weather packets stored in our database for station/object VR2OT-10. If no packets are shown the sender has not sent any weather packets the latest 10 day(s).
| Time | Temp. | Humidity | Pressure | Rain* | Wind** | Luminosity | Snow |
|---|---|---|---|---|---|---|---|
| 1787658033 | 27.22° C | 85% | 1002.5 hPa | - | 1.34 m/s, 135° | - | - |
| 1787656234 | 27.22° C | 84% | 1002.5 hPa | - | 0.45 m/s, 135° | - | - |
| 1787655333 | 27.78° C | 84% | 1002.2 hPa | - | 0 m/s | - | - |
| 1787654431 | 27.78° C | 87% | 1002.2 hPa | - | 1.79 m/s, 135° | - | - |
| 1787653533 | 27.22° C | 82% | 1002.2 hPa | - | 1.79 m/s, 135° | - | - |
| 1787651732 | 28.89° C | 83% | 1001.7 hPa | - | 0 m/s | - | - |
| 1787650834 | 28.33° C | 82% | 1001.8 hPa | - | 0.45 m/s, 315° | - | - |
| 1787649031 | 28.33° C | 86% | 1001.7 hPa | - | 1.79 m/s, 270° | - | - |
| 1787647234 | 28.33° C | 84% | 1001.7 hPa | - | 2.68 m/s, 180° | - | - |
| 1787646332 | 29.44° C | 81% | 1001.6 hPa | - | 1.34 m/s, 225° | - | - |
| 1787645434 | 29.44° C | 83% | 1001.7 hPa | - | 1.34 m/s, 180° | - | - |
| 1787644532 | 30° C | 80% | 1001.7 hPa | - | 1.34 m/s, 180° | - | - |
| 1787642733 | 29.44° C | 76% | 1002.1 hPa | - | 1.79 m/s, 225° | - | - |
| 1787641833 | 30° C | 78% | 1002.1 hPa | - | 3.13 m/s, 180° | - | - |
| 1787640034 | 30° C | 75% | 1002.2 hPa | - | 3.58 m/s, 180° | - | - |
| 1787638232 | 31.11° C | 74% | 1002.2 hPa | - | 1.79 m/s, 225° | - | - |
| 1787637333 | 30.56° C | 75% | 1002.3 hPa | - | 0.89 m/s, 180° | - | - |
| 1787636433 | 30° C | 76% | 1002.5 hPa | - | 0.45 m/s, 180° | - | - |
| 1787634634 | 28.89° C | 77% | 1002.7 hPa | - | 0.89 m/s, 270° | - | - |
| 1787632832 | 28.33° C | 82% | 1003.2 hPa | - | 2.68 m/s, 270° | - | - |
| 1787631934 | 27.78° C | 81% | 1003.3 hPa | - | 3.13 m/s, 270° | - | - |
| 1787631034 | 29.44° C | 82% | 1003.3 hPa | - | 5.81 m/s, 270° | - | - |
| 1787630132 | 29.44° C | 79% | 1003.2 hPa | - | 3.13 m/s, 180° | - | - |
| 1787629234 | 29.44° C | 78% | 1003.1 hPa | - | 3.58 m/s, 180° | - | - |
| 1787627431 | 29.44° C | 72% | 1003 hPa | - | 3.13 m/s, 225° | - | - |
* Rain since midnight (hover to see other rain measurements)
** Current wind speed in m/s (hover to see current wind gust speed)